createdAt,value
2023-04-28T00:00:06.594Z,3.63
2023-04-28T00:02:34.381Z,3.64
2023-04-28T00:05:01.569Z,3.49
2023-04-28T00:07:28.482Z,3.54
2023-04-28T00:09:56.911Z,3.59
2023-04-28T00:12:23.734Z,3.61
2023-04-28T00:14:50.523Z,3.65
2023-04-28T00:17:17.424Z,3.65
2023-04-28T00:19:45.091Z,3.67
2023-04-28T00:22:11.923Z,3.66
2023-04-28T00:24:38.699Z,3.63
2023-04-28T00:27:05.535Z,3.60
2023-04-28T00:29:32.304Z,3.56
2023-04-28T00:31:59.109Z,3.52
2023-04-28T00:34:25.965Z,3.41
2023-04-28T00:36:52.660Z,3.23
2023-04-28T00:39:19.333Z,3.17
2023-04-28T00:41:46.039Z,3.24
2023-04-28T00:44:12.781Z,3.27
2023-04-28T00:46:39.690Z,3.24
2023-04-28T00:49:06.522Z,3.28
2023-04-28T00:51:33.894Z,3.26
2023-04-28T00:54:01.000Z,3.24
2023-04-28T00:56:31.157Z,3.16
2023-04-28T00:58:58.667Z,2.99
2023-04-28T01:01:25.771Z,2.95
2023-04-28T01:03:52.862Z,2.86
2023-04-28T01:06:20.383Z,2.78
2023-04-28T01:08:49.650Z,2.80
2023-04-28T01:11:17.007Z,2.74
2023-04-28T01:13:43.793Z,2.70
2023-04-28T01:16:11.176Z,2.60
2023-04-28T01:18:38.894Z,2.59
2023-04-28T01:21:05.668Z,2.58
2023-04-28T01:23:32.420Z,2.59
2023-04-28T01:25:59.139Z,2.58
2023-04-28T01:28:26.227Z,2.56
2023-04-28T01:30:52.998Z,2.55
2023-04-28T01:33:19.833Z,2.49
2023-04-28T01:35:46.590Z,2.57
2023-04-28T01:38:13.323Z,2.58
2023-04-28T01:40:40.065Z,2.57
2023-04-28T01:43:07.114Z,2.59
2023-04-28T01:45:33.883Z,2.56
2023-04-28T01:48:00.722Z,2.46
2023-04-28T01:50:27.470Z,2.47
2023-04-28T01:52:54.169Z,2.47
2023-04-28T01:55:21.585Z,2.49
2023-04-28T01:57:48.274Z,2.46
2023-04-28T02:00:15.204Z,2.23
2023-04-28T02:02:42.087Z,2.26
2023-04-28T02:05:08.990Z,2.36
2023-04-28T02:07:36.354Z,2.31
2023-04-28T02:10:03.254Z,2.38
2023-04-28T02:12:29.957Z,2.41
2023-04-28T02:14:57.501Z,2.40
2023-04-28T02:17:24.295Z,2.42
2023-04-28T02:20:00.187Z,2.35
2023-04-28T02:22:26.965Z,2.39
2023-04-28T02:24:53.728Z,2.38
2023-04-28T02:27:21.491Z,2.39
2023-04-28T02:29:48.293Z,2.37
2023-04-28T02:32:15.101Z,2.23
2023-04-28T02:34:41.847Z,2.19
2023-04-28T02:37:08.579Z,2.17
2023-04-28T02:39:35.540Z,2.17
2023-04-28T02:42:03.761Z,2.08
2023-04-28T02:44:30.554Z,1.97
2023-04-28T02:46:57.406Z,2.10
2023-04-28T02:49:24.159Z,2.17
2023-04-28T02:51:50.890Z,2.09
2023-04-28T02:54:27.169Z,2.08
2023-04-28T02:56:54.889Z,2.08
2023-04-28T02:59:22.277Z,1.97
2023-04-28T03:01:49.212Z,1.95
2023-04-28T03:04:17.228Z,1.76
2023-04-28T03:06:44.367Z,1.79
2023-04-28T03:09:11.200Z,1.83
2023-04-28T03:11:38.176Z,1.85
2023-04-28T03:14:04.948Z,1.84
2023-04-28T03:16:31.737Z,1.77
2023-04-28T03:18:58.485Z,1.74
2023-04-28T03:21:27.827Z,1.76
2023-04-28T03:23:54.714Z,1.76
2023-04-28T03:26:21.534Z,1.73
2023-04-28T03:28:48.995Z,1.69
2023-04-28T03:31:15.858Z,1.61
2023-04-28T03:33:45.502Z,1.66
2023-04-28T03:36:12.341Z,1.71
2023-04-28T03:38:39.085Z,1.62
2023-04-28T03:41:05.892Z,1.56
2023-04-28T03:43:33.405Z,1.56
2023-04-28T03:46:00.175Z,1.64
2023-04-28T03:48:27.126Z,1.61
2023-04-28T03:50:53.934Z,1.73
2023-04-28T03:53:20.779Z,1.82
2023-04-28T03:55:47.574Z,1.92
2023-04-28T03:58:14.369Z,1.87
2023-04-28T04:00:41.116Z,1.87
2023-04-28T04:03:08.239Z,1.88
2023-04-28T04:05:35.243Z,1.97
2023-04-28T04:08:03.047Z,2.05
2023-04-28T04:10:29.810Z,2.12
2023-04-28T04:12:56.543Z,1.94
2023-04-28T04:15:23.296Z,1.99
2023-04-28T04:17:50.123Z,2.08
2023-04-28T04:20:16.923Z,2.18
2023-04-28T04:22:43.706Z,2.31
2023-04-28T04:25:10.481Z,2.41
2023-04-28T04:27:37.196Z,2.51
2023-04-28T04:30:04.412Z,2.60
2023-04-28T04:32:31.174Z,2.73
2023-04-28T04:34:58.004Z,2.85
2023-04-28T04:37:24.794Z,2.89
2023-04-28T04:39:54.885Z,3.10
2023-04-28T04:42:25.422Z,3.22
2023-04-28T04:44:52.726Z,3.39
2023-04-28T04:47:19.646Z,3.50
2023-04-28T04:49:46.387Z,3.62
2023-04-28T04:52:13.044Z,3.83
2023-04-28T04:54:39.748Z,3.99
2023-04-28T04:57:07.070Z,4.15
2023-04-28T04:59:33.836Z,4.28
2023-04-28T05:02:00.796Z,4.44
2023-04-28T05:04:27.623Z,4.52
2023-04-28T05:06:54.483Z,4.60
2023-04-28T05:09:21.358Z,4.71
2023-04-28T05:11:48.077Z,4.84
2023-04-28T05:14:15.330Z,4.98
2023-04-28T05:16:42.933Z,5.10
2023-04-28T05:19:09.692Z,5.24
2023-04-28T05:21:36.422Z,5.37
2023-04-28T05:24:03.206Z,5.47
2023-04-28T05:26:30.212Z,5.57
2023-04-28T05:28:57.330Z,5.72
2023-04-28T05:31:24.130Z,5.91
2023-04-28T05:33:51.758Z,6.03
2023-04-28T05:36:18.559Z,6.16
2023-04-28T05:38:45.322Z,6.35
2023-04-28T05:41:12.115Z,6.62
2023-04-28T05:43:38.954Z,6.98
2023-04-28T05:46:12.119Z,7.36
2023-04-28T05:48:46.638Z,7.92
2023-04-28T05:51:13.511Z,8.35
2023-04-28T05:53:40.238Z,8.83
2023-04-28T05:56:08.886Z,9.23
2023-04-28T05:58:36.230Z,9.45
2023-04-28T06:01:03.075Z,9.55
2023-04-28T06:03:30.039Z,9.61
2023-04-28T06:06:00.974Z,9.74
2023-04-28T06:08:27.841Z,9.53
2023-04-28T06:10:55.057Z,9.50
2023-04-28T06:13:22.255Z,9.61
2023-04-28T06:15:49.171Z,9.72
2023-04-28T06:18:16.747Z,9.84
2023-04-28T06:20:43.894Z,10.04
2023-04-28T06:23:11.134Z,10.29
2023-04-28T06:25:38.794Z,10.51
2023-04-28T06:28:07.585Z,10.65
2023-04-28T06:30:35.529Z,10.83
2023-04-28T06:33:02.515Z,10.93
2023-04-28T06:35:29.584Z,11.11
2023-04-28T06:37:56.796Z,11.22
2023-04-28T06:40:23.850Z,11.26
2023-04-28T06:42:50.924Z,11.37
2023-04-28T06:45:18.249Z,11.47
2023-04-28T06:47:45.967Z,11.50
2023-04-28T06:50:13.432Z,11.63
2023-04-28T06:52:40.777Z,11.81
2023-04-28T06:55:09.593Z,11.93
2023-04-28T06:57:38.455Z,11.98
2023-04-28T07:00:06.494Z,11.95
2023-04-28T07:02:33.565Z,11.91
2023-04-28T07:05:01.162Z,12.01
2023-04-28T07:07:28.098Z,12.11
2023-04-28T07:09:57.154Z,12.30
2023-04-28T07:12:24.160Z,12.30
2023-04-28T07:14:51.689Z,12.78
2023-04-28T07:17:19.087Z,13.29
2023-04-28T07:19:47.092Z,13.68
2023-04-28T07:22:14.093Z,13.91
2023-04-28T07:24:41.250Z,13.91
2023-04-28T07:27:08.104Z,13.93
2023-04-28T07:29:35.256Z,13.80
2023-04-28T07:32:05.255Z,13.86
2023-04-28T07:34:33.924Z,13.95
2023-04-28T07:37:01.144Z,13.79
2023-04-28T07:39:28.172Z,13.97
2023-04-28T07:41:55.158Z,14.03
2023-04-28T07:44:22.157Z,14.15
2023-04-28T07:46:52.052Z,14.30
2023-04-28T07:49:19.331Z,14.35
2023-04-28T07:51:46.572Z,14.43
2023-04-28T07:54:13.853Z,14.66
2023-04-28T07:56:41.115Z,14.77
2023-04-28T07:59:08.389Z,14.91
2023-04-28T08:01:35.968Z,15.01
2023-04-28T08:04:03.796Z,15.24
2023-04-28T08:06:31.199Z,15.55
2023-04-28T08:08:58.164Z,15.83
2023-04-28T08:11:25.222Z,16.01
2023-04-28T08:13:52.373Z,15.91
2023-04-28T08:16:19.914Z,16.03
2023-04-28T08:18:47.497Z,16.14
2023-04-28T08:21:14.446Z,16.29
2023-04-28T08:23:41.590Z,16.45
2023-04-28T08:26:08.811Z,16.76
2023-04-28T08:28:36.198Z,17.14
2023-04-28T08:31:05.466Z,17.13
2023-04-28T08:33:32.411Z,17.18
2023-04-28T08:35:59.773Z,17.36
2023-04-28T08:38:27.152Z,17.41
2023-04-28T08:40:54.340Z,17.44
2023-04-28T08:43:21.728Z,17.48
2023-04-28T08:45:49.583Z,17.59
2023-04-28T08:48:21.391Z,17.86
2023-04-28T08:50:51.447Z,18.17
2023-04-28T08:53:26.042Z,18.35
2023-04-28T08:55:57.153Z,18.58
2023-04-28T08:58:25.719Z,18.67
2023-04-28T09:00:53.917Z,19.07
2023-04-28T09:03:22.110Z,19.09
2023-04-28T09:05:49.639Z,19.56
2023-04-28T09:08:16.777Z,19.58
2023-04-28T09:10:43.861Z,19.60
2023-04-28T09:13:11.069Z,19.83
2023-04-28T09:15:41.656Z,19.58
2023-04-28T09:18:12.348Z,19.71
2023-04-28T09:20:39.510Z,19.45
2023-04-28T09:23:14.907Z,19.58
2023-04-28T09:25:55.937Z,19.71
2023-04-28T09:28:23.359Z,20.00
2023-04-28T09:30:50.382Z,19.87
2023-04-28T09:33:17.571Z,19.78
2023-04-28T09:35:46.278Z,19.94
2023-04-28T09:38:13.424Z,20.07
2023-04-28T09:40:52.535Z,20.19
2023-04-28T09:43:35.434Z,20.05
2023-04-28T09:46:04.792Z,19.97
2023-04-28T09:48:33.076Z,19.64
2023-04-28T09:51:06.134Z,19.99
2023-04-28T09:53:33.653Z,19.87
2023-04-28T09:56:03.406Z,20.24
2023-04-28T09:58:33.090Z,20.54
2023-04-28T10:01:01.267Z,20.82
2023-04-28T10:03:30.537Z,20.89
2023-04-28T10:05:59.475Z,21.53
2023-04-28T10:08:28.228Z,21.78
2023-04-28T10:10:56.955Z,22.74
2023-04-28T10:13:24.838Z,23.25
2023-04-28T10:15:55.915Z,23.59
2023-04-28T10:18:24.385Z,22.10
2023-04-28T10:20:58.486Z,22.09
2023-04-28T10:23:31.954Z,22.10
2023-04-28T10:26:00.184Z,22.82
2023-04-28T10:28:27.564Z,23.19
2023-04-28T10:31:23.533Z,23.68
2023-04-28T10:33:51.035Z,23.44
2023-04-28T10:36:51.126Z,23.26
2023-04-28T10:39:18.866Z,23.10
2023-04-28T10:41:47.804Z,23.60
2023-04-28T10:44:30.060Z,22.23
2023-04-28T10:47:06.794Z,22.39
2023-04-28T10:49:58.488Z,22.77
2023-04-28T10:52:38.044Z,23.02
2023-04-28T10:55:40.312Z,23.10
2023-04-28T10:58:16.467Z,23.50
2023-04-28T11:00:46.249Z,23.27
2023-04-28T11:03:52.393Z,22.74
2023-04-28T11:06:29.184Z,22.45
2023-04-28T11:08:57.949Z,22.95
2023-04-28T11:11:28.830Z,23.18
2023-04-28T11:14:19.229Z,22.89
2023-04-28T11:16:56.626Z,22.02
2023-04-28T11:19:28.561Z,21.67
2023-04-28T11:21:57.356Z,21.72
2023-04-28T11:24:29.482Z,21.40
2023-04-28T11:26:57.648Z,21.11
2023-04-28T11:29:37.964Z,20.40
2023-04-28T11:32:06.347Z,19.97
2023-04-28T11:34:34.073Z,19.58
2023-04-28T11:37:01.622Z,19.25
2023-04-28T11:39:33.732Z,19.12
2023-04-28T11:42:10.912Z,18.90
2023-04-28T11:44:38.190Z,19.05
2023-04-28T11:47:06.633Z,19.37
2023-04-28T11:49:47.005Z,19.64
2023-04-28T11:52:14.114Z,20.40
2023-04-28T11:54:43.689Z,20.51
2023-04-28T11:57:24.177Z,21.05
2023-04-28T11:59:51.458Z,20.56
2023-04-28T12:02:28.439Z,20.14
2023-04-28T12:04:56.192Z,20.11
2023-04-28T12:07:23.839Z,20.11
2023-04-28T12:10:11.053Z,20.16
2023-04-28T12:15:09.829Z,19.65
2023-04-28T12:17:41.545Z,19.47
2023-04-28T12:20:11.047Z,19.05
2023-04-28T12:22:47.721Z,19.22
2023-04-28T12:25:17.425Z,19.23
2023-04-28T12:28:05.622Z,18.88
2023-04-28T12:30:36.128Z,18.68
2023-04-28T12:33:04.402Z,18.96
2023-04-28T12:35:33.092Z,19.14
2023-04-28T12:38:01.065Z,19.25
2023-04-28T12:40:28.951Z,19.26
2023-04-28T12:42:57.313Z,19.38
2023-04-28T12:45:24.675Z,19.30
2023-04-28T12:47:52.298Z,19.41
2023-04-28T12:50:19.476Z,19.79
2023-04-28T12:52:48.577Z,20.14
2023-04-28T12:55:17.243Z,20.21
2023-04-28T12:57:45.716Z,20.34
2023-04-28T13:00:16.738Z,20.40
2023-04-28T13:02:45.588Z,20.09
2023-04-28T13:05:14.571Z,20.06
2023-04-28T13:07:42.228Z,20.10
2023-04-28T13:10:09.666Z,20.41
2023-04-28T13:12:36.916Z,20.77
2023-04-28T13:15:04.275Z,20.70
2023-04-28T13:17:31.231Z,20.33
2023-04-28T13:19:58.188Z,20.14
2023-04-28T13:22:25.248Z,19.96
2023-04-28T13:24:52.115Z,19.43
2023-04-28T13:27:18.963Z,19.10
2023-04-28T13:29:45.820Z,18.55
2023-04-28T13:32:12.641Z,18.57
2023-04-28T13:34:40.249Z,18.75
2023-04-28T13:37:07.622Z,18.88
2023-04-28T13:39:34.878Z,18.76
2023-04-28T13:42:02.897Z,18.79
2023-04-28T13:44:30.359Z,18.88
2023-04-28T13:46:58.242Z,18.71
2023-04-28T13:49:25.845Z,18.59
2023-04-28T13:51:53.092Z,18.95
2023-04-28T13:54:21.532Z,18.99
2023-04-28T13:56:49.705Z,18.96
2023-04-28T13:59:17.537Z,18.83
2023-04-28T14:01:44.870Z,18.53
2023-04-28T14:04:12.996Z,18.62
2023-04-28T14:06:40.965Z,18.67
2023-04-28T14:09:08.384Z,18.86
2023-04-28T14:11:36.090Z,19.08
2023-04-28T14:14:04.720Z,19.72
2023-04-28T14:16:32.098Z,19.52
2023-04-28T14:18:59.751Z,19.40
2023-04-28T14:21:27.394Z,19.64
2023-04-28T14:23:55.010Z,20.17
2023-04-28T14:26:24.219Z,19.95
2023-04-28T14:28:51.476Z,19.44
2023-04-28T14:31:19.291Z,19.07
2023-04-28T14:33:46.550Z,18.97
2023-04-28T14:36:13.587Z,18.88
2023-04-28T14:38:41.137Z,18.75
2023-04-28T14:41:08.556Z,18.56
2023-04-28T14:43:36.224Z,18.34
2023-04-28T14:46:04.282Z,18.23
2023-04-28T14:48:34.566Z,18.15
2023-04-28T14:51:02.275Z,18.47
2023-04-28T14:53:30.741Z,18.70
2023-04-28T14:56:14.788Z,18.80
2023-04-28T14:58:45.148Z,18.76
2023-04-28T15:01:13.033Z,18.72
2023-04-28T15:03:41.125Z,18.62
2023-04-28T15:06:09.044Z,18.63
2023-04-28T15:08:37.042Z,18.59
2023-04-28T15:11:04.679Z,18.61
2023-04-28T15:13:32.746Z,18.56
2023-04-28T15:16:00.787Z,18.19
2023-04-28T15:18:28.925Z,17.99
2023-04-28T15:20:56.338Z,17.88
2023-04-28T15:23:23.913Z,17.62
2023-04-28T15:25:54.048Z,17.56
2023-04-28T15:28:22.435Z,17.45
2023-04-28T15:30:50.173Z,17.25
2023-04-28T15:33:18.072Z,17.13
2023-04-28T15:35:46.761Z,17.10
2023-04-28T15:38:14.598Z,17.05
2023-04-28T15:40:42.763Z,16.90
2023-04-28T15:43:10.405Z,16.79
2023-04-28T15:45:39.102Z,16.70
2023-04-28T15:48:07.070Z,16.63
2023-04-28T15:50:34.941Z,16.57
2023-04-28T15:53:03.548Z,16.54
2023-04-28T15:55:30.928Z,16.46
2023-04-28T15:57:58.442Z,16.48
2023-04-28T16:00:25.414Z,16.49
2023-04-28T16:02:52.416Z,16.51
2023-04-28T16:05:19.589Z,16.38
2023-04-28T16:07:48.554Z,16.30
2023-04-28T16:10:16.763Z,16.35
2023-04-28T16:12:43.683Z,16.31
2023-04-28T16:15:12.879Z,16.23
2023-04-28T16:17:40.772Z,16.23
2023-04-28T16:20:09.588Z,16.16
2023-04-28T16:22:37.751Z,16.20
2023-04-28T16:25:05.232Z,16.20
2023-04-28T16:27:32.876Z,16.19
2023-04-28T16:30:00.094Z,16.15
2023-04-28T16:32:27.246Z,16.08
2023-04-28T16:34:57.185Z,15.94
2023-04-28T16:37:24.072Z,15.92
2023-04-28T16:39:51.101Z,15.88
2023-04-28T16:42:18.422Z,15.90
2023-04-28T16:44:45.398Z,15.87
2023-04-28T16:47:12.465Z,15.84
2023-04-28T16:49:39.454Z,15.80
2023-04-28T16:52:06.477Z,15.76
2023-04-28T16:54:33.767Z,15.69
2023-04-28T16:57:02.565Z,15.61
2023-04-28T16:59:29.764Z,15.57
2023-04-28T17:02:01.652Z,15.50
2023-04-28T17:04:28.892Z,15.50
2023-04-28T17:06:56.146Z,15.40
2023-04-28T17:09:23.595Z,15.37
2023-04-28T17:11:51.303Z,15.33
2023-04-28T17:14:18.955Z,15.31
2023-04-28T17:16:46.364Z,15.27
2023-04-28T17:19:14.734Z,15.20
2023-04-28T17:21:42.498Z,15.15
2023-04-28T17:24:09.964Z,15.15
2023-04-28T17:26:37.675Z,15.17
2023-04-28T17:29:05.242Z,15.17
2023-04-28T17:31:32.682Z,15.13
2023-04-28T17:34:00.816Z,15.12
2023-04-28T17:36:28.911Z,15.13
2023-04-28T17:38:56.695Z,15.10
2023-04-28T17:41:24.246Z,15.09
2023-04-28T17:43:54.386Z,15.06
2023-04-28T17:46:22.602Z,15.04
2023-04-28T17:48:50.151Z,15.01
2023-04-28T17:51:17.969Z,15.00
2023-04-28T17:53:48.847Z,14.95
2023-04-28T17:56:16.837Z,14.93
2023-04-28T17:58:44.691Z,14.89
2023-04-28T18:01:12.270Z,14.88
2023-04-28T18:03:40.086Z,14.80
2023-04-28T18:06:08.292Z,14.80
2023-04-28T18:08:37.051Z,14.82
2023-04-28T18:11:05.241Z,14.74
2023-04-28T18:13:33.400Z,14.68
2023-04-28T18:16:01.271Z,14.68
2023-04-28T18:18:30.698Z,14.64
2023-04-28T18:20:59.975Z,14.55
2023-04-28T18:23:27.979Z,14.37
2023-04-28T18:25:55.702Z,14.36
2023-04-28T18:28:23.177Z,14.36
2023-04-28T18:30:50.894Z,14.33
2023-04-28T18:33:23.318Z,14.29
2023-04-28T18:35:59.711Z,14.21
2023-04-28T18:38:27.178Z,14.16
2023-04-28T18:40:55.029Z,14.11
2023-04-28T18:43:23.718Z,14.00
2023-04-28T18:45:51.050Z,13.96
2023-04-28T18:48:19.426Z,13.71
2023-04-28T18:50:48.997Z,13.66
2023-04-28T18:53:18.192Z,13.67
2023-04-28T18:55:45.924Z,13.69
2023-04-28T18:58:15.193Z,13.67
2023-04-28T19:00:46.046Z,13.62
2023-04-28T19:03:14.317Z,13.52
2023-04-28T19:05:45.153Z,13.49
2023-04-28T19:08:12.649Z,13.45
2023-04-28T19:10:40.203Z,13.40
2023-04-28T19:13:07.738Z,13.34
2023-04-28T19:15:35.567Z,13.23
2023-04-28T19:18:04.972Z,13.25
2023-04-28T19:20:32.889Z,13.21
2023-04-28T19:23:04.015Z,13.13
2023-04-28T19:25:33.845Z,13.06
2023-04-28T19:28:01.762Z,13.07
2023-04-28T19:30:29.310Z,13.01
2023-04-28T19:32:57.037Z,13.03
2023-04-28T19:35:24.752Z,13.01
2023-04-28T19:37:53.013Z,12.96
2023-04-28T19:40:20.876Z,12.92
2023-04-28T19:42:48.936Z,12.95
2023-04-28T19:45:17.884Z,12.95
2023-04-28T19:47:45.644Z,12.94
2023-04-28T19:50:13.422Z,12.86
2023-04-28T19:52:40.937Z,12.79
2023-04-28T19:55:08.493Z,12.75
2023-04-28T19:57:36.078Z,12.71
2023-04-28T20:00:03.762Z,12.56
2023-04-28T20:02:31.316Z,12.55
2023-04-28T20:04:59.025Z,12.56
2023-04-28T20:07:26.776Z,12.49
2023-04-28T20:09:56.550Z,12.38
2023-04-28T20:12:24.406Z,12.33
2023-04-28T20:14:52.558Z,12.31
2023-04-28T20:17:20.091Z,12.35
2023-04-28T20:19:48.073Z,12.25
2023-04-28T20:22:15.906Z,12.25
2023-04-28T20:24:43.754Z,12.28
2023-04-28T20:27:12.253Z,12.25
2023-04-28T20:29:39.906Z,12.26
2023-04-28T20:32:07.963Z,12.24
2023-04-28T20:34:36.792Z,12.23
2023-04-28T20:37:04.483Z,12.25
2023-04-28T20:39:32.095Z,12.25
2023-04-28T20:42:01.032Z,12.25
2023-04-28T20:44:28.582Z,12.29
2023-04-28T20:46:56.108Z,12.33
2023-04-28T20:49:24.591Z,12.32
2023-04-28T20:51:52.270Z,12.28
2023-04-28T20:54:20.084Z,12.21
2023-04-28T20:56:48.037Z,12.20
2023-04-28T20:59:15.576Z,12.17
2023-04-28T21:01:43.145Z,12.17
2023-04-28T21:04:11.169Z,12.15
2023-04-28T21:06:38.936Z,12.15
2023-04-28T21:09:06.344Z,12.09
2023-04-28T21:11:34.117Z,12.14
2023-04-28T21:14:01.990Z,12.16
2023-04-28T21:16:29.632Z,12.11
2023-04-28T21:18:57.114Z,12.02
2023-04-28T21:21:25.123Z,12.03
2023-04-28T21:23:53.137Z,12.06
2023-04-28T21:26:22.118Z,12.04
2023-04-28T21:28:50.619Z,12.03
2023-04-28T21:31:18.618Z,12.02
2023-04-28T21:33:46.150Z,12.07
2023-04-28T21:36:13.946Z,12.16
2023-04-28T21:38:41.618Z,12.18
2023-04-28T21:41:09.130Z,12.20
2023-04-28T21:43:37.164Z,12.19
2023-04-28T21:46:04.886Z,12.21
2023-04-28T21:48:32.158Z,12.20
2023-04-28T21:51:00.187Z,12.18
2023-04-28T21:53:29.056Z,12.17
2023-04-28T21:55:56.862Z,12.17
2023-04-28T21:58:24.535Z,12.15
2023-04-28T22:00:53.428Z,12.15
2023-04-28T22:03:21.264Z,12.15
2023-04-28T22:05:49.162Z,12.13
2023-04-28T22:08:17.262Z,12.12
2023-04-28T22:10:48.140Z,12.09
2023-04-28T22:13:16.335Z,12.06
2023-04-28T22:15:44.187Z,12.05
2023-04-28T22:18:11.937Z,12.04
2023-04-28T22:20:39.413Z,12.06
2023-04-28T22:23:06.924Z,12.04
2023-04-28T22:25:34.334Z,12.04
2023-04-28T22:28:02.150Z,12.01
2023-04-28T22:30:31.671Z,12.00
2023-04-28T22:32:59.217Z,12.00
2023-04-28T22:35:26.970Z,11.98
2023-04-28T22:37:54.798Z,11.96
2023-04-28T22:40:22.184Z,11.90
2023-04-28T22:42:50.349Z,11.76
2023-04-28T22:45:18.161Z,11.77
2023-04-28T22:47:46.332Z,11.75
2023-04-28T22:50:14.183Z,11.72
2023-04-28T22:52:42.070Z,11.69
2023-04-28T22:55:10.165Z,11.61
2023-04-28T22:57:37.965Z,11.63
2023-04-28T23:00:06.187Z,11.63
2023-04-28T23:02:34.303Z,11.68
2023-04-28T23:05:02.168Z,11.58
2023-04-28T23:07:30.169Z,11.57
2023-04-28T23:09:58.076Z,11.57
2023-04-28T23:12:26.975Z,11.56
2023-04-28T23:14:54.567Z,11.55
2023-04-28T23:17:22.187Z,11.56
2023-04-28T23:19:50.276Z,11.52
2023-04-28T23:22:18.370Z,11.54
2023-04-28T23:24:46.178Z,11.53
2023-04-28T23:27:14.372Z,11.52
2023-04-28T23:29:41.585Z,11.54
2023-04-28T23:32:09.485Z,11.54
2023-04-28T23:34:38.575Z,11.48
2023-04-28T23:37:07.002Z,11.43
2023-04-28T23:39:34.995Z,11.41
2023-04-28T23:42:02.706Z,11.44
2023-04-28T23:44:30.699Z,11.46
2023-04-28T23:46:58.584Z,11.46
2023-04-28T23:49:26.276Z,11.49
2023-04-28T23:51:54.097Z,11.46
2023-04-28T23:54:21.794Z,11.41
2023-04-28T23:56:49.704Z,11.44
2023-04-28T23:59:17.728Z,11.46
